AWE4111 KAUS-KOKC
Flight info
| Callsign | AWE4111 |
|---|---|
| Flight time | 1h 5m |
| Altitude | 32000 |
| Route | ELOEL3 KLNGR MQP YUCKS YUCKS3 |
| Aircraft | A320/M-SDE3FGHIRWY/LB1 |
Departure
| Time | 2026-04-24 02:26 |
|---|---|
| Airport | Austin Bergstrom International Airport (KAUS) |
Arrival
| Time | 2026-04-24 03:32 |
|---|---|
| Airport | OKC Will Rogers World Airport (KOKC) |
| Time | Latitude | Longitude | Altitude | Speed | Heading |
|---|---|---|---|---|---|
| 2026-04-24 01:48 | 30.20166 | -97.67001 | 501 ft | 0 kts | 35° |
| 2026-04-24 02:14 | 30.20155 | -97.67010 | 501 ft | 2 kts | 35° |
| 2026-04-24 02:14 | 30.20141 | -97.67021 | 501 ft | 2 kts | 35° |
| 2026-04-24 02:14 | 30.20127 | -97.67033 | 501 ft | 2 kts | 35° |
| 2026-04-24 02:15 | 30.20113 | -97.67044 | 501 ft | 2 kts | 35° |
| 2026-04-24 02:15 | 30.20102 | -97.67055 | 501 ft | 3 kts | 60° |
| 2026-04-24 02:15 | 30.20096 | -97.67074 | 501 ft | 2 kts | 79° |
| 2026-04-24 02:15 | 30.20093 | -97.67093 | 501 ft | 2 kts | 79° |
| 2026-04-24 02:16 | 30.20091 | -97.67106 | 501 ft | 0 kts | 84° |
| 2026-04-24 02:18 | 30.20091 | -97.67102 | 501 ft | 2 kts | 86° |
| 2026-04-24 02:19 | 30.20092 | -97.67082 | 501 ft | 3 kts | 88° |
| 2026-04-24 02:19 | 30.20093 | -97.67055 | 501 ft | 3 kts | 88° |
| 2026-04-24 02:19 | 30.20093 | -97.67040 | 501 ft | 0 kts | 88° |
| 2026-04-24 02:20 | 30.20093 | -97.67036 | 501 ft | 0 kts | 88° |
| 2026-04-24 02:20 | 30.20093 | -97.67033 | 501 ft | 1 kts | 88° |
| 2026-04-24 02:20 | 30.20084 | -97.67009 | 501 ft | 7 kts | 135° |
| 2026-04-24 02:21 | 30.20018 | -97.66990 | 501 ft | 12 kts | 179° |
| 2026-04-24 02:21 | 30.19932 | -97.66985 | 501 ft | 12 kts | 163° |
| 2026-04-24 02:21 | 30.19902 | -97.66894 | 501 ft | 14 kts | 91° |
| 2026-04-24 02:21 | 30.19905 | -97.66774 | 501 ft | 16 kts | 89° |
| 2026-04-24 02:22 | 30.19907 | -97.66636 | 501 ft | 18 kts | 89° |
| 2026-04-24 02:22 | 30.19910 | -97.66485 | 501 ft | 20 kts | 89° |
| 2026-04-24 02:22 | 30.19912 | -97.66345 | 501 ft | 18 kts | 89° |
| 2026-04-24 02:22 | 30.19916 | -97.66191 | 500 ft | 20 kts | 88° |
| 2026-04-24 02:23 | 30.19920 | -97.66033 | 488 ft | 13 kts | 89° |
| 2026-04-24 02:23 | 30.20000 | -97.65992 | 491 ft | 11 kts | 358° |
| 2026-04-24 02:23 | 30.20081 | -97.65994 | 489 ft | 12 kts | 359° |
| 2026-04-24 02:23 | 30.20167 | -97.65996 | 490 ft | 13 kts | 358° |
| 2026-04-24 02:24 | 30.20260 | -97.65999 | 493 ft | 14 kts | 359° |
| 2026-04-24 02:24 | 30.20355 | -97.65983 | 490 ft | 15 kts | 41° |
| 2026-04-24 02:24 | 30.20370 | -97.65903 | 487 ft | 5 kts | 88° |
| 2026-04-24 02:24 | 30.20370 | -97.65902 | 487 ft | 0 kts | 88° |
| 2026-04-24 02:25 | 30.20371 | -97.65876 | 488 ft | 5 kts | 88° |
| 2026-04-24 02:25 | 30.20372 | -97.65830 | 488 ft | 6 kts | 90° |
| 2026-04-24 02:25 | 30.20344 | -97.65794 | 488 ft | 8 kts | 163° |
| 2026-04-24 02:25 | 30.20271 | -97.65787 | 483 ft | 14 kts | 179° |
| 2026-04-24 02:26 | 30.19981 | -97.65780 | 481 ft | 75 kts | 179° |
| 2026-04-24 02:26 | 30.19264 | -97.65760 | 489 ft | 128 kts | 178° |
| 2026-04-24 02:26 | 30.18293 | -97.65745 | 813 ft | 137 kts | 175° |
| 2026-04-24 02:26 | 30.17343 | -97.65734 | 1299 ft | 139 kts | 178° |
| 2026-04-24 02:27 | 30.16372 | -97.65711 | 1706 ft | 139 kts | 175° |
| 2026-04-24 02:27 | 30.15407 | -97.65682 | 2265 ft | 138 kts | 178° |
| 2026-04-24 02:27 | 30.14395 | -97.65681 | 2640 ft | 152 kts | 183° |
| 2026-04-24 02:27 | 30.13326 | -97.65967 | 3066 ft | 165 kts | 201° |
| 2026-04-24 02:28 | 30.12430 | -97.66871 | 3462 ft | 184 kts | 234° |
| 2026-04-24 02:28 | 30.12078 | -97.68410 | 3664 ft | 220 kts | 268° |
| 2026-04-24 02:28 | 30.12555 | -97.70220 | 3949 ft | 256 kts | 299° |
| 2026-04-24 02:28 | 30.13895 | -97.71734 | 4414 ft | 282 kts | 327° |
| 2026-04-24 02:29 | 30.15730 | -97.72517 | 5190 ft | 291 kts | 349° |
| 2026-04-24 02:29 | 30.17768 | -97.72659 | 6044 ft | 295 kts | 358° |
| 2026-04-24 02:29 | 30.19828 | -97.72680 | 6843 ft | 297 kts | 357° |
| 2026-04-24 02:29 | 30.21891 | -97.72705 | 7702 ft | 297 kts | 356° |
| 2026-04-24 02:30 | 30.23964 | -97.72749 | 8491 ft | 298 kts | 356° |
| 2026-04-24 02:30 | 30.26039 | -97.72847 | 9299 ft | 299 kts | 354° |
| 2026-04-24 02:30 | 30.28131 | -97.73063 | 9946 ft | 304 kts | 348° |
| 2026-04-24 02:30 | 30.30226 | -97.73563 | 10423 ft | 314 kts | 342° |
| 2026-04-24 02:31 | 30.32405 | -97.74246 | 10657 ft | 333 kts | 341° |
| 2026-04-24 02:31 | 30.34682 | -97.75000 | 11023 ft | 346 kts | 340° |
| 2026-04-24 02:31 | 30.37021 | -97.75773 | 11584 ft | 351 kts | 341° |
| 2026-04-24 02:31 | 30.39387 | -97.76515 | 12309 ft | 353 kts | 341° |
| 2026-04-24 02:32 | 30.41767 | -97.77219 | 13029 ft | 354 kts | 342° |
| 2026-04-24 02:32 | 30.44174 | -97.77880 | 13750 ft | 357 kts | 343° |
| 2026-04-24 02:32 | 30.46603 | -97.78509 | 14352 ft | 359 kts | 344° |
| 2026-04-24 02:32 | 30.49055 | -97.79114 | 14956 ft | 362 kts | 344° |
| 2026-04-24 02:33 | 30.51534 | -97.79742 | 15450 ft | 367 kts | 343° |
| 2026-04-24 02:33 | 30.54035 | -97.80400 | 16069 ft | 368 kts | 343° |
| 2026-04-24 02:33 | 30.56543 | -97.81072 | 16616 ft | 372 kts | 343° |
| 2026-04-24 02:33 | 30.59072 | -97.81767 | 17185 ft | 375 kts | 342° |
| 2026-04-24 02:34 | 30.61619 | -97.82471 | 17770 ft | 378 kts | 342° |
| 2026-04-24 02:34 | 30.64158 | -97.83183 | 18290 ft | 383 kts | 342° |
| 2026-04-24 02:34 | 30.66754 | -97.83919 | 18820 ft | 384 kts | 342° |
| 2026-04-24 02:34 | 30.69359 | -97.84648 | 19453 ft | 385 kts | 342° |
| 2026-04-24 02:35 | 30.71975 | -97.85370 | 20029 ft | 388 kts | 342° |
| 2026-04-24 02:35 | 30.74610 | -97.86108 | 20572 ft | 390 kts | 341° |
| 2026-04-24 02:35 | 30.77226 | -97.86959 | 21119 ft | 391 kts | 339° |
| 2026-04-24 02:35 | 30.79832 | -97.87913 | 21664 ft | 393 kts | 337° |
| 2026-04-24 02:36 | 30.82436 | -97.88920 | 22195 ft | 395 kts | 337° |
| 2026-04-24 02:36 | 30.85052 | -97.89947 | 22709 ft | 397 kts | 336° |
| 2026-04-24 02:36 | 30.87682 | -97.90972 | 23218 ft | 400 kts | 337° |
| 2026-04-24 02:36 | 30.90333 | -97.91990 | 23666 ft | 402 kts | 337° |
| 2026-04-24 02:37 | 30.93000 | -97.92997 | 24101 ft | 404 kts | 337° |
| 2026-04-24 02:37 | 30.95651 | -97.93981 | 24534 ft | 405 kts | 337° |
| 2026-04-24 02:37 | 30.98344 | -97.94973 | 24976 ft | 406 kts | 337° |
| 2026-04-24 02:37 | 31.01044 | -97.95966 | 25407 ft | 407 kts | 337° |
| 2026-04-24 02:38 | 31.03751 | -97.96963 | 25827 ft | 408 kts | 336° |
| 2026-04-24 02:38 | 31.06462 | -97.97966 | 26236 ft | 410 kts | 336° |
| 2026-04-24 02:38 | 31.09184 | -97.98978 | 26648 ft | 411 kts | 336° |
| 2026-04-24 02:38 | 31.11909 | -97.99993 | 27054 ft | 412 kts | 336° |
| 2026-04-24 02:39 | 31.14649 | -98.01014 | 27467 ft | 413 kts | 336° |
| 2026-04-24 02:39 | 31.17388 | -98.02037 | 27853 ft | 415 kts | 336° |
| 2026-04-24 02:39 | 31.20144 | -98.03054 | 28243 ft | 418 kts | 338° |
| 2026-04-24 02:39 | 31.23028 | -98.03718 | 28622 ft | 428 kts | 347° |
| 2026-04-24 02:40 | 31.26042 | -98.03805 | 28983 ft | 437 kts | 354° |
| 2026-04-24 02:40 | 31.29093 | -98.03710 | 29329 ft | 439 kts | 354° |
| 2026-04-24 02:40 | 31.32154 | -98.03619 | 29682 ft | 441 kts | 353° |
| 2026-04-24 02:40 | 31.35232 | -98.03533 | 30007 ft | 443 kts | 353° |
| 2026-04-24 02:41 | 31.38280 | -98.03449 | 30303 ft | 444 kts | 353° |
| 2026-04-24 02:41 | 31.41382 | -98.03363 | 30600 ft | 446 kts | 353° |
| 2026-04-24 02:41 | 31.44476 | -98.03278 | 31008 ft | 444 kts | 353° |
| 2026-04-24 02:41 | 31.47556 | -98.03190 | 31439 ft | 441 kts | 353° |
| 2026-04-24 02:42 | 31.50619 | -98.03104 | 31745 ft | 440 kts | 353° |
| 2026-04-24 02:42 | 31.53666 | -98.03022 | 31823 ft | 434 kts | 352° |
| 2026-04-24 02:42 | 31.59639 | -98.02859 | 31836 ft | 427 kts | 352° |
| 2026-04-24 02:43 | 31.65570 | -98.02702 | 31837 ft | 426 kts | 352° |
| 2026-04-24 02:43 | 31.71499 | -98.02545 | 31839 ft | 426 kts | 352° |
| 2026-04-24 02:44 | 31.77435 | -98.02386 | 31830 ft | 427 kts | 352° |
| 2026-04-24 02:44 | 31.83381 | -98.02218 | 31821 ft | 427 kts | 353° |
| 2026-04-24 02:45 | 31.89330 | -98.02049 | 31810 ft | 428 kts | 353° |
| 2026-04-24 02:45 | 31.95290 | -98.01886 | 31803 ft | 428 kts | 353° |
| 2026-04-24 02:46 | 32.01249 | -98.01725 | 31811 ft | 428 kts | 353° |
| 2026-04-24 02:46 | 32.07178 | -98.01561 | 31819 ft | 429 kts | 353° |
| 2026-04-24 02:47 | 32.13146 | -98.01398 | 31828 ft | 429 kts | 353° |
| 2026-04-24 02:47 | 32.19131 | -98.01234 | 31832 ft | 430 kts | 353° |
| 2026-04-24 02:48 | 32.25120 | -98.01070 | 31827 ft | 431 kts | 353° |
| 2026-04-24 02:48 | 32.31130 | -98.00911 | 31823 ft | 432 kts | 353° |
| 2026-04-24 02:49 | 32.37136 | -98.00740 | 31785 ft | 432 kts | 353° |
| 2026-04-24 02:49 | 32.43149 | -98.00564 | 31786 ft | 432 kts | 353° |
| 2026-04-24 02:50 | 32.49123 | -98.00397 | 31788 ft | 432 kts | 353° |
| 2026-04-24 02:50 | 32.55140 | -98.00233 | 31784 ft | 432 kts | 353° |
| 2026-04-24 02:51 | 32.61165 | -98.00062 | 31776 ft | 433 kts | 353° |
| 2026-04-24 02:51 | 32.67184 | -97.99896 | 31782 ft | 433 kts | 353° |
| 2026-04-24 02:52 | 32.73215 | -97.99727 | 31785 ft | 433 kts | 353° |
| 2026-04-24 02:52 | 32.79231 | -97.99696 | 31710 ft | 432 kts | 351° |
| 2026-04-24 02:53 | 32.82224 | -97.99733 | 31462 ft | 428 kts | 351° |
| 2026-04-24 02:53 | 32.85199 | -97.99781 | 31212 ft | 427 kts | 351° |
| 2026-04-24 02:53 | 32.88169 | -97.99826 | 30972 ft | 426 kts | 351° |
| 2026-04-24 02:53 | 32.91126 | -97.99863 | 30733 ft | 425 kts | 351° |
| 2026-04-24 02:54 | 32.94082 | -97.99889 | 30493 ft | 424 kts | 352° |
| 2026-04-24 02:54 | 32.97032 | -97.99908 | 30253 ft | 423 kts | 352° |
| 2026-04-24 02:54 | 32.99976 | -97.99925 | 30014 ft | 423 kts | 352° |
| 2026-04-24 02:54 | 33.02915 | -97.99939 | 29795 ft | 422 kts | 352° |
| 2026-04-24 02:55 | 33.05848 | -97.99954 | 29526 ft | 420 kts | 352° |
| 2026-04-24 02:55 | 33.08770 | -97.99972 | 29259 ft | 419 kts | 352° |
| 2026-04-24 02:55 | 33.11677 | -97.99992 | 28996 ft | 418 kts | 352° |
| 2026-04-24 02:55 | 33.14581 | -98.00014 | 28729 ft | 416 kts | 352° |
| 2026-04-24 02:56 | 33.16492 | -98.00026 | 28555 ft | 415 kts | 352° |
| 2026-04-24 02:56 | 33.20317 | -98.00048 | 28202 ft | 413 kts | 352° |
| 2026-04-24 02:56 | 33.23188 | -98.00064 | 27940 ft | 412 kts | 352° |
| 2026-04-24 02:56 | 33.26050 | -98.00080 | 27681 ft | 410 kts | 353° |
| 2026-04-24 02:57 | 33.28899 | -98.00095 | 27422 ft | 409 kts | 353° |
| 2026-04-24 02:57 | 33.31741 | -98.00111 | 27167 ft | 408 kts | 353° |
| 2026-04-24 02:57 | 33.33620 | -98.00121 | 26994 ft | 407 kts | 353° |
| 2026-04-24 02:57 | 33.36446 | -98.00139 | 26738 ft | 405 kts | 353° |
| 2026-04-24 02:58 | 33.39259 | -98.00159 | 26486 ft | 404 kts | 353° |
| 2026-04-24 02:58 | 33.42064 | -98.00179 | 26230 ft | 403 kts | 353° |
| 2026-04-24 02:58 | 33.44861 | -98.00201 | 25983 ft | 401 kts | 353° |
| 2026-04-24 02:58 | 33.47646 | -98.00231 | 25735 ft | 400 kts | 353° |
| 2026-04-24 02:59 | 33.50423 | -98.00267 | 25493 ft | 399 kts | 353° |
| 2026-04-24 02:59 | 33.53195 | -98.00289 | 25253 ft | 398 kts | 354° |
| 2026-04-24 02:59 | 33.55964 | -98.00231 | 25020 ft | 397 kts | 355° |
| 2026-04-24 02:59 | 33.58727 | -98.00169 | 24783 ft | 396 kts | 355° |
| 2026-04-24 03:00 | 33.61478 | -98.00112 | 24551 ft | 395 kts | 355° |
| 2026-04-24 03:00 | 33.64229 | -98.00063 | 24321 ft | 394 kts | 355° |
| 2026-04-24 03:00 | 33.66966 | -98.00018 | 24088 ft | 393 kts | 355° |
| 2026-04-24 03:00 | 33.69696 | -97.99967 | 23858 ft | 392 kts | 355° |
| 2026-04-24 03:01 | 33.72418 | -97.99903 | 23633 ft | 391 kts | 356° |
| 2026-04-24 03:01 | 33.75135 | -97.99837 | 23410 ft | 389 kts | 356° |
| 2026-04-24 03:01 | 33.77835 | -97.99775 | 23146 ft | 388 kts | 356° |
| 2026-04-24 03:01 | 33.80533 | -97.99715 | 22879 ft | 387 kts | 356° |
| 2026-04-24 03:02 | 33.83216 | -97.99655 | 22614 ft | 385 kts | 356° |
| 2026-04-24 03:02 | 33.85890 | -97.99594 | 22351 ft | 384 kts | 356° |
| 2026-04-24 03:02 | 33.88554 | -97.99533 | 22087 ft | 382 kts | 356° |
| 2026-04-24 03:02 | 33.91214 | -97.99474 | 21830 ft | 381 kts | 356° |
| 2026-04-24 03:03 | 33.93853 | -97.99417 | 21566 ft | 379 kts | 356° |
| 2026-04-24 03:03 | 33.96455 | -97.99363 | 21325 ft | 378 kts | 356° |
| 2026-04-24 03:03 | 33.99078 | -97.99311 | 21070 ft | 376 kts | 356° |
| 2026-04-24 03:03 | 34.01692 | -97.99262 | 20817 ft | 375 kts | 355° |
| 2026-04-24 03:04 | 34.04299 | -97.99211 | 20575 ft | 374 kts | 356° |
| 2026-04-24 03:04 | 34.06902 | -97.99156 | 20324 ft | 373 kts | 356° |
| 2026-04-24 03:04 | 34.09488 | -97.99100 | 20080 ft | 371 kts | 356° |
| 2026-04-24 03:04 | 34.12067 | -97.99045 | 19842 ft | 370 kts | 356° |
| 2026-04-24 03:05 | 34.14639 | -97.98994 | 19607 ft | 369 kts | 356° |
| 2026-04-24 03:05 | 34.17197 | -97.98940 | 19377 ft | 367 kts | 356° |
| 2026-04-24 03:05 | 34.19753 | -97.98886 | 19145 ft | 366 kts | 356° |
| 2026-04-24 03:05 | 34.22305 | -97.98832 | 18912 ft | 365 kts | 356° |
| 2026-04-24 03:06 | 34.24839 | -97.98778 | 18689 ft | 364 kts | 356° |
| 2026-04-24 03:06 | 34.27368 | -97.98725 | 18461 ft | 363 kts | 356° |
| 2026-04-24 03:06 | 34.29859 | -97.98671 | 18243 ft | 362 kts | 356° |
| 2026-04-24 03:06 | 34.32375 | -97.98618 | 18023 ft | 361 kts | 356° |
| 2026-04-24 03:07 | 34.34884 | -97.98565 | 17763 ft | 360 kts | 356° |
| 2026-04-24 03:07 | 34.37383 | -97.98511 | 17510 ft | 358 kts | 356° |
| 2026-04-24 03:07 | 34.39876 | -97.98456 | 17256 ft | 357 kts | 356° |
| 2026-04-24 03:07 | 34.42354 | -97.98400 | 16997 ft | 356 kts | 356° |
| 2026-04-24 03:08 | 34.44825 | -97.98346 | 16740 ft | 354 kts | 355° |
| 2026-04-24 03:08 | 34.49734 | -97.98240 | 16244 ft | 352 kts | 355° |
| 2026-04-24 03:08 | 34.52180 | -97.98189 | 15993 ft | 350 kts | 355° |
| 2026-04-24 03:09 | 34.54616 | -97.98136 | 15749 ft | 349 kts | 355° |
| 2026-04-24 03:09 | 34.57040 | -97.98084 | 15501 ft | 348 kts | 355° |
| 2026-04-24 03:09 | 34.59454 | -97.98032 | 15257 ft | 346 kts | 355° |
| 2026-04-24 03:09 | 34.61861 | -97.97979 | 15010 ft | 345 kts | 355° |
| 2026-04-24 03:10 | 34.64256 | -97.97926 | 14766 ft | 344 kts | 355° |
| 2026-04-24 03:10 | 34.66612 | -97.97876 | 14528 ft | 342 kts | 355° |
| 2026-04-24 03:10 | 34.68989 | -97.97829 | 14289 ft | 341 kts | 355° |
| 2026-04-24 03:10 | 34.71356 | -97.97785 | 14050 ft | 340 kts | 355° |
| 2026-04-24 03:11 | 34.73714 | -97.97742 | 13812 ft | 339 kts | 355° |
| 2026-04-24 03:11 | 34.76067 | -97.97692 | 13576 ft | 338 kts | 355° |
| 2026-04-24 03:11 | 34.78416 | -97.97638 | 13320 ft | 336 kts | 355° |
| 2026-04-24 03:11 | 34.80754 | -97.97586 | 13069 ft | 336 kts | 354° |
| 2026-04-24 03:12 | 34.83085 | -97.97536 | 12824 ft | 334 kts | 354° |
| 2026-04-24 03:12 | 34.85408 | -97.97485 | 12566 ft | 334 kts | 354° |
| 2026-04-24 03:12 | 34.87729 | -97.97432 | 12320 ft | 332 kts | 354° |
| 2026-04-24 03:12 | 34.90037 | -97.97382 | 12078 ft | 331 kts | 354° |
| 2026-04-24 03:13 | 34.92335 | -97.97333 | 11833 ft | 330 kts | 354° |
| 2026-04-24 03:13 | 34.94634 | -97.97279 | 11589 ft | 329 kts | 354° |
| 2026-04-24 03:13 | 34.96920 | -97.97228 | 11352 ft | 328 kts | 354° |
| 2026-04-24 03:13 | 34.99201 | -97.97052 | 11114 ft | 332 kts | 3° |
| 2026-04-24 03:14 | 35.01452 | -97.96324 | 10878 ft | 338 kts | 15° |
| 2026-04-24 03:14 | 35.03545 | -97.95034 | 10642 ft | 344 kts | 28° |
| 2026-04-24 03:14 | 35.05442 | -97.93212 | 10405 ft | 348 kts | 37° |
| 2026-04-24 03:14 | 35.07260 | -97.91271 | 10172 ft | 347 kts | 37° |
| 2026-04-24 03:15 | 35.09072 | -97.89343 | 9963 ft | 342 kts | 37° |
| 2026-04-24 03:15 | 35.09675 | -97.88701 | 9919 ft | 338 kts | 37° |
| 2026-04-24 03:15 | 35.11181 | -97.87202 | 9833 ft | 326 kts | 30° |
| 2026-04-24 03:15 | 35.13074 | -97.85753 | 9719 ft | 319 kts | 26° |
| 2026-04-24 03:16 | 35.14976 | -97.84351 | 9592 ft | 318 kts | 26° |
| 2026-04-24 03:16 | 35.16869 | -97.82954 | 9463 ft | 318 kts | 26° |
| 2026-04-24 03:16 | 35.18763 | -97.81556 | 9331 ft | 318 kts | 26° |
| 2026-04-24 03:16 | 35.20657 | -97.80156 | 9201 ft | 318 kts | 26° |
| 2026-04-24 03:17 | 35.22548 | -97.78756 | 9071 ft | 318 kts | 26° |
| 2026-04-24 03:17 | 35.24441 | -97.77354 | 8937 ft | 318 kts | 26° |
| 2026-04-24 03:17 | 35.26330 | -97.75952 | 8820 ft | 318 kts | 27° |
| 2026-04-24 03:17 | 35.28201 | -97.74559 | 8482 ft | 322 kts | 27° |
| 2026-04-24 03:18 | 35.30115 | -97.73138 | 8039 ft | 314 kts | 27° |
| 2026-04-24 03:18 | 35.31992 | -97.71802 | 7924 ft | 301 kts | 20° |
| 2026-04-24 03:18 | 35.33925 | -97.71043 | 7803 ft | 284 kts | 2° |
| 2026-04-24 03:18 | 35.35819 | -97.70901 | 7678 ft | 271 kts | 352° |
| 2026-04-24 03:19 | 35.37710 | -97.70908 | 7304 ft | 274 kts | 353° |
| 2026-04-24 03:19 | 35.39602 | -97.70906 | 7075 ft | 271 kts | 353° |
| 2026-04-24 03:19 | 35.41531 | -97.70909 | 6536 ft | 283 kts | 353° |
| 2026-04-24 03:19 | 35.43496 | -97.70912 | 6139 ft | 278 kts | 353° |
| 2026-04-24 03:20 | 35.45372 | -97.70903 | 6017 ft | 260 kts | 353° |
| 2026-04-24 03:20 | 35.47162 | -97.70900 | 6029 ft | 256 kts | 352° |
| 2026-04-24 03:20 | 35.48940 | -97.70913 | 6035 ft | 256 kts | 352° |
| 2026-04-24 03:20 | 35.50716 | -97.70928 | 5975 ft | 253 kts | 352° |
| 2026-04-24 03:21 | 35.52447 | -97.70927 | 5811 ft | 245 kts | 352° |
| 2026-04-24 03:21 | 35.54147 | -97.70919 | 5522 ft | 244 kts | 352° |
| 2026-04-24 03:21 | 35.55838 | -97.70921 | 5303 ft | 239 kts | 352° |
| 2026-04-24 03:21 | 35.57491 | -97.70922 | 5060 ft | 237 kts | 352° |
| 2026-04-24 03:22 | 35.59138 | -97.70920 | 4830 ft | 233 kts | 352° |
| 2026-04-24 03:22 | 35.60732 | -97.70910 | 4621 ft | 227 kts | 352° |
| 2026-04-24 03:22 | 35.62268 | -97.70886 | 4449 ft | 221 kts | 353° |
| 2026-04-24 03:22 | 35.63768 | -97.70375 | 4172 ft | 229 kts | 33° |
| 2026-04-24 03:23 | 35.64790 | -97.68957 | 4039 ft | 219 kts | 71° |
| 2026-04-24 03:23 | 35.65364 | -97.67249 | 4020 ft | 214 kts | 79° |
| 2026-04-24 03:23 | 35.65594 | -97.65543 | 4003 ft | 189 kts | 115° |
| 2026-04-24 03:23 | 35.65173 | -97.64105 | 4025 ft | 176 kts | 130° |
| 2026-04-24 03:24 | 35.64631 | -97.62773 | 4026 ft | 174 kts | 133° |
| 2026-04-24 03:24 | 35.63958 | -97.61620 | 4019 ft | 159 kts | 152° |
| 2026-04-24 03:24 | 35.63085 | -97.60900 | 4021 ft | 146 kts | 169° |
| 2026-04-24 03:24 | 35.62136 | -97.60605 | 4022 ft | 137 kts | 185° |
| 2026-04-24 03:25 | 35.61193 | -97.60595 | 4022 ft | 135 kts | 188° |
| 2026-04-24 03:25 | 35.60253 | -97.60593 | 4031 ft | 135 kts | 187° |
| 2026-04-24 03:25 | 35.59313 | -97.60592 | 4029 ft | 135 kts | 187° |
| 2026-04-24 03:25 | 35.58373 | -97.60591 | 4035 ft | 135 kts | 187° |
| 2026-04-24 03:26 | 35.57433 | -97.60590 | 4030 ft | 135 kts | 187° |
| 2026-04-24 03:26 | 35.56489 | -97.60589 | 4032 ft | 136 kts | 187° |
| 2026-04-24 03:26 | 35.55544 | -97.60589 | 4016 ft | 137 kts | 187° |
| 2026-04-24 03:26 | 35.54596 | -97.60587 | 3914 ft | 135 kts | 187° |
| 2026-04-24 03:27 | 35.53687 | -97.60585 | 3778 ft | 126 kts | 187° |
| 2026-04-24 03:27 | 35.52840 | -97.60583 | 3632 ft | 117 kts | 187° |
| 2026-04-24 03:27 | 35.52050 | -97.60582 | 3491 ft | 111 kts | 187° |
| 2026-04-24 03:27 | 35.51292 | -97.60582 | 3363 ft | 109 kts | 187° |
| 2026-04-24 03:28 | 35.50535 | -97.60582 | 3225 ft | 108 kts | 187° |
| 2026-04-24 03:28 | 35.49791 | -97.60581 | 3089 ft | 107 kts | 186° |
| 2026-04-24 03:28 | 35.49054 | -97.60580 | 2945 ft | 104 kts | 185° |
| 2026-04-24 03:28 | 35.48338 | -97.60580 | 2819 ft | 102 kts | 185° |
| 2026-04-24 03:29 | 35.47629 | -97.60579 | 2690 ft | 101 kts | 184° |
| 2026-04-24 03:29 | 35.46931 | -97.60579 | 2555 ft | 100 kts | 183° |
| 2026-04-24 03:29 | 35.46236 | -97.60578 | 2431 ft | 100 kts | 183° |
| 2026-04-24 03:29 | 35.45542 | -97.60578 | 2310 ft | 100 kts | 181° |
| 2026-04-24 03:30 | 35.44833 | -97.60577 | 2175 ft | 104 kts | 179° |
| 2026-04-24 03:30 | 35.44077 | -97.60576 | 2029 ft | 112 kts | 179° |
| 2026-04-24 03:30 | 35.43279 | -97.60574 | 1901 ft | 117 kts | 181° |
| 2026-04-24 03:30 | 35.42454 | -97.60566 | 1728 ft | 120 kts | 181° |
| 2026-04-24 03:31 | 35.41620 | -97.60574 | 1542 ft | 120 kts | 178° |
| 2026-04-24 03:31 | 35.40791 | -97.60575 | 1384 ft | 118 kts | 178° |
| 2026-04-24 03:31 | 35.39988 | -97.60571 | 1292 ft | 103 kts | 179° |
| 2026-04-24 03:31 | 35.39433 | -97.60572 | 1291 ft | 55 kts | 180° |
| 2026-04-24 03:32 | 35.39218 | -97.60553 | 1293 ft | 14 kts | 132° |
| 2026-04-24 03:32 | 35.39216 | -97.60438 | 1294 ft | 12 kts | 89° |
| 2026-04-24 03:32 | 35.39216 | -97.60399 | 1294 ft | 1 kts | 89° |
| 2026-04-24 03:32 | 35.39216 | -97.60389 | 1294 ft | 2 kts | 90° |
| 2026-04-24 03:33 | 35.39216 | -97.60371 | 1294 ft | 3 kts | 90° |
| 2026-04-24 03:33 | 35.39216 | -97.60340 | 1295 ft | 5 kts | 91° |
| 2026-04-24 03:33 | 35.39215 | -97.60282 | 1295 ft | 9 kts | 90° |
| 2026-04-24 03:33 | 35.39216 | -97.60187 | 1294 ft | 14 kts | 89° |
| 2026-04-24 03:34 | 35.39216 | -97.60049 | 1291 ft | 18 kts | 90° |
| 2026-04-24 03:34 | 35.39226 | -97.59923 | 1292 ft | 12 kts | 55° |
| 2026-04-24 03:34 | 35.39256 | -97.59851 | 1293 ft | 10 kts | 57° |
| 2026-04-24 03:34 | 35.39320 | -97.59826 | 1294 ft | 10 kts | 0° |
| 2026-04-24 03:35 | 35.39389 | -97.59831 | 1296 ft | 10 kts | 342° |
| 2026-04-24 03:35 | 35.39415 | -97.59909 | 1296 ft | 11 kts | 274° |
| 2026-04-24 03:35 | 35.39443 | -97.60002 | 1296 ft | 12 kts | 316° |
| 2026-04-24 03:35 | 35.39510 | -97.60075 | 1294 ft | 13 kts | 318° |
| 2026-04-24 03:36 | 35.39572 | -97.60087 | 1294 ft | 6 kts | 22° |
| 2026-04-24 03:36 | 35.39572 | -97.60059 | 1296 ft | 2 kts | 120° |
| 2026-04-24 03:36 | 35.39568 | -97.60050 | 1296 ft | 1 kts | 120° |
| 2026-04-24 03:36 | 35.39562 | -97.60039 | 1297 ft | 2 kts | 120° |
| 2026-04-24 03:37 | 35.39552 | -97.60017 | 1297 ft | 4 kts | 119° |
| 2026-04-24 03:37 | 35.39540 | -97.59990 | 1297 ft | 0 kts | 117° |
| 2026-04-24 03:37 | 35.39540 | -97.59989 | 1297 ft | 0 kts | 117° |
| 2026-04-24 03:37 | 35.39539 | -97.59988 | 1297 ft | 1 kts | 117° |
| 2026-04-24 03:38 | 35.39536 | -97.59980 | 1297 ft | 0 kts | 117° |